Time;durP1;ratioP1;P1;durP2;ratioP2;P2;SDS_P1;SDS_P2;PMS_P1;PMS_P2;Temp;Humidity;BMP_temperature;BMP_pressure;BME280_temperature;BME280_humidity;BME280_pressure;Samples;Min_cycle;Max_cycle;Signal;HPM_P1;HPM_P2
2023/06/21 00:01:38;;;;;;;49.73;44.87;;;;;;;21.71;84.82;100456.56;7397738;19;20046;-66
2023/06/21 00:04:06;;;;;;;49.47;44.83;;;;;;;21.69;85.17;100454.00;7398037;19;20042;-65
2023/06/21 00:06:35;;;;;;;52.35;46.88;;;;;;;21.67;85.61;100461.25;7397171;19;20018;-65
2023/06/21 00:09:05;;;;;;;50.20;45.42;;;;;;;21.66;85.88;100448.03;7399418;19;20018;-65
2023/06/21 00:11:34;;;;;;;53.67;48.28;;;;;;;21.62;85.44;100442.06;7399590;19;20018;-65
2023/06/21 00:14:06;;;;;;;52.08;46.97;;;;;;;21.59;86.28;100445.81;7397787;19;20035;-65
2023/06/21 00:16:42;;;;;;;52.30;47.17;;;;;;;21.56;86.32;100439.84;7399592;19;20015;-65
2023/06/21 00:19:10;;;;;;;52.53;47.33;;;;;;;21.53;86.56;100448.88;7398862;19;20579;-65
2023/06/21 00:21:38;;;;;;;52.92;47.78;;;;;;;21.53;86.35;100475.59;7398548;19;20027;-65
2023/06/21 00:24:07;;;;;;;53.35;48.20;;;;;;;21.53;86.37;100482.75;7396151;19;20011;-65
2023/06/21 00:26:36;;;;;;;51.88;46.78;;;;;;;21.52;86.80;100481.91;7397109;19;20014;-66
2023/06/21 00:29:07;;;;;;;53.72;48.40;;;;;;;21.49;86.90;100476.78;7396644;19;20474;-66
2023/06/21 00:31:35;;;;;;;53.17;47.88;;;;;;;21.49;87.12;100479.44;7399121;19;20019;-65
2023/06/21 00:34:04;;;;;;;54.25;48.78;;;;;;;21.48;86.74;100473.25;7396346;19;20023;-65
2023/06/21 00:36:32;;;;;;;53.15;47.95;;;;;;;21.48;86.99;100457.25;7398117;19;20385;-65
2023/06/21 00:39:01;;;;;;;54.05;48.65;;;;;;;21.48;87.07;100448.38;7398029;19;20031;-65
2023/06/21 00:41:29;;;;;;;56.17;50.70;;;;;;;21.48;87.06;100451.91;7393757;19;20022;-65
2023/06/21 00:43:58;;;;;;;54.05;48.63;;;;;;;21.48;87.29;100445.72;7396235;19;20018;-65
2023/06/21 00:46:29;;;;;;;57.63;51.90;;;;;;;21.48;87.06;100440.38;7396065;19;20019;-65
2023/06/21 00:48:58;;;;;;;59.08;53.28;;;;;;;21.47;87.56;100454.66;7398553;19;20022;-66
2023/06/21 00:51:27;;;;;;;53.83;48.63;;;;;;;21.47;87.72;100452.88;7396079;19;20015;-66
2023/06/21 00:53:56;;;;;;;54.13;48.90;;;;;;;21.45;87.19;100454.78;7395506;19;20384;-66
2023/06/21 00:56:25;;;;;;;53.83;48.53;;;;;;;21.45;87.21;100453.94;7397801;19;20010;-66
2023/06/21 00:58:53;;;;;;;51.88;46.78;;;;;;;21.44;87.27;100455.75;7397854;19;20015;-66
2023/06/21 01:01:22;;;;;;;52.90;47.90;;;;;;;21.42;87.48;100460.38;7395705;19;20022;-66
2023/06/21 01:04:00;;;;;;;51.92;46.92;;;;;;;21.40;87.67;100461.44;7395928;19;20451;-66
2023/06/21 01:06:34;;;;;;;53.15;47.95;;;;;;;21.38;87.30;100445.53;7396083;19;20035;-66
2023/06/21 01:09:11;;;;;;;52.67;47.30;;;;;;;21.38;87.53;100450.00;7397923;19;20073;-66
2023/06/21 01:11:49;;;;;;;54.47;49.03;;;;;;;21.36;87.33;100442.13;7397064;19;20031;-66
2023/06/21 01:14:28;;;;;;;54.72;49.30;;;;;;;21.35;87.85;100443.06;7396803;19;20028;-65
2023/06/21 01:16:58;;;;;;;53.00;47.95;;;;;;;21.36;87.95;100457.25;7397577;19;20011;-65
2023/06/21 01:19:43;;;;;;;52.95;47.55;;;;;;;21.36;87.99;100451.91;7395394;19;20113;-71
2023/06/21 01:22:18;;;;;;;54.70;49.38;;;;;;;21.35;87.82;100458.25;7395637;19;20018;-66
2023/06/21 01:24:58;;;;;;;54.03;48.72;;;;;;;21.34;87.91;100461.88;7395470;19;20018;-67
2023/06/21 01:27:48;;;;;;;54.05;48.92;;;;;;;21.34;87.65;100462.72;7394937;19;20530;-67
2023/06/21 01:30:21;;;;;;;52.72;47.50;;;;;;;21.36;87.95;100458.13;7395499;19;20019;-67
2023/06/21 01:32:53;;;;;;;53.88;48.53;;;;;;;21.37;87.73;100454.50;7394659;19;20389;-67
2023/06/21 01:35:24;;;;;;;54.97;49.45;;;;;;;21.37;87.75;100467.84;7394625;19;20018;-67
2023/06/21 01:37:53;;;;;;;53.60;48.30;;;;;;;21.35;88.21;100516.94;7396716;19;20042;-67
2023/06/21 01:40:21;;;;;;;57.40;51.88;;;;;;;21.29;88.50;100516.44;7396453;19;20027;-66
2023/06/21 01:42:50;;;;;;;56.25;50.80;;;;;;;21.24;88.16;100518.53;7395660;19;20040;-67
2023/06/21 01:45:23;;;;;;;53.45;48.35;;;;;;;21.21;88.38;100524.09;7395952;19;20478;-67
2023/06/21 01:47:53;;;;;;;52.53;47.08;;;;;;;21.17;88.60;100509.28;7394964;19;20018;-67
2023/06/21 01:50:22;;;;;;;51.95;46.85;;;;;;;21.16;87.99;100507.56;7395698;19;20031;-67
2023/06/21 01:52:52;;;;;;;45.50;41.10;;;;;;;21.15;87.72;100497.84;7395298;19;20074;-68
2023/06/21 01:55:22;;;;;;;44.22;39.85;;;;;;;21.14;87.38;100505.00;7395375;19;20027;-67
2023/06/21 01:57:52;;;;;;;39.55;35.85;;;;;;;21.14;86.07;100507.69;7395684;19;20019;-67
2023/06/21 02:00:25;;;;;;;40.53;36.28;;;;;;;21.15;85.39;100495.19;7396208;19;20011;-67
2023/06/21 02:02:57;;;;;;;39.88;35.80;;;;;;;21.15;84.68;100488.06;7396946;19;20485;-68
2023/06/21 02:05:27;;;;;;;39.28;35.53;;;;;;;21.16;84.46;100495.06;7396852;19;20022;-67
2023/06/21 02:07:57;;;;;;;38.45;34.70;;;;;;;21.20;84.39;100493.03;7395738;19;20010;-67
2023/06/21 02:10:26;;;;;;;40.28;36.30;;;;;;;21.22;83.88;100483.13;7393586;19;20014;-67
2023/06/21 02:12:56;;;;;;;39.30;35.70;;;;;;;21.24;84.13;100473.19;7395112;19;20014;-67
2023/06/21 02:15:27;;;;;;;39.00;35.15;;;;;;;21.25;84.77;100479.38;7393214;19;20519;-67
2023/06/21 02:17:56;;;;;;;38.33;34.63;;;;;;;21.24;85.17;100480.34;7394063;19;20031;-67
2023/06/21 02:20:25;;;;;;;40.97;37.03;;;;;;;21.15;86.60;100485.38;7393502;19;20112;-68
2023/06/21 02:22:53;;;;;;;40.50;36.60;;;;;;;21.01;87.28;100508.66;7394617;19;20018;-67
2023/06/21 02:25:21;;;;;;;43.47;39.10;;;;;;;20.81;89.11;100511.72;7395087;19;20022;-67
2023/06/21 02:27:50;;;;;;;43.05;38.83;;;;;;;20.65;90.30;100509.22;7392941;19;20010;-68
2023/06/21 02:30:18;;;;;;;43.42;39.10;;;;;;;20.53;91.15;100507.38;7394923;19;20014;-67
2023/06/21 02:32:49;;;;;;;44.90;39.63;;;;;;;20.44;93.52;100510.66;7394767;19;20082;-68
2023/06/21 02:35:18;;;;;;;45.42;40.97;;;;;;;20.36;93.23;100508.53;7395184;19;20023;-68
2023/06/21 02:37:47;;;;;;;44.25;40.05;;;;;;;20.32;94.18;100509.66;7394570;19;20039;-67
2023/06/21 02:40:17;;;;;;;45.03;40.40;;;;;;;20.29;94.06;100510.72;7394576;19;20037;-67
2023/06/21 02:42:45;;;;;;;45.70;41.20;;;;;;;20.27;94.75;100512.66;7393920;19;20022;-68
2023/06/21 02:45:14;;;;;;;46.35;42.00;;;;;;;20.26;94.87;100518.94;7394585;19;20022;-68
2023/06/21 02:47:42;;;;;;;44.67;40.13;;;;;;;20.26;95.05;100513.59;7394484;19;20010;-67
2023/06/21 02:50:15;;;;;;;44.58;39.88;;;;;;;20.26;95.28;100504.75;7394025;19;20015;-67
2023/06/21 02:52:43;;;;;;;47.60;42.75;;;;;;;20.26;95.20;100505.59;7391967;19;20352;-67
2023/06/21 02:55:13;;;;;;;46.38;41.60;;;;;;;20.26;96.00;100512.75;7393794;19;20478;-68
2023/06/21 02:57:41;;;;;;;46.80;42.10;;;;;;;20.25;95.66;100517.22;7392162;19;20076;-67
2023/06/21 03:00:18;;;;;;;46.08;41.45;;;;;;;20.25;95.91;100519.88;7392177;19;20027;-67
2023/06/21 03:02:47;;;;;;;49.58;44.45;;;;;;;20.26;95.98;100516.25;7391948;19;20078;-67
2023/06/21 03:05:18;;;;;;;49.42;44.53;;;;;;;20.26;96.43;100504.75;7399912;19;20090;-67
2023/06/21 03:07:48;;;;;;;47.03;42.25;;;;;;;20.27;96.39;100498.47;7401098;19;20031;-67
2023/06/21 03:10:18;;;;;;;47.72;42.88;;;;;;;20.27;96.57;100507.31;7401158;19;20022;-68
2023/06/21 03:12:46;;;;;;;48.53;43.42;;;;;;;20.27;96.67;100504.66;7401049;19;20018;-67
2023/06/21 03:15:15;;;;;;;51.63;46.50;;;;;;;20.28;97.11;100505.50;7401117;19;20015;-67
2023/06/21 03:17:43;;;;;;;50.58;45.67;;;;;;;20.27;97.21;100504.66;7398410;19;20027;-67
2023/06/21 03:20:14;;;;;;;49.53;44.60;;;;;;;20.29;97.60;100507.22;7401004;19;20022;-67
2023/06/21 03:22:46;;;;;;;50.30;45.35;;;;;;;20.28;97.51;100502.84;7397871;19;20010;-68
2023/06/21 03:25:16;;;;;;;49.58;44.33;;;;;;;20.27;97.56;100504.66;7398454;19;20019;-67
2023/06/21 03:27:51;;;;;;;48.08;43.08;;;;;;;20.27;98.37;100507.31;7396430;19;20014;-67
2023/06/21 03:30:25;;;;;;;52.33;46.85;;;;;;;20.28;98.19;100509.03;7401103;19;20110;-67
2023/06/21 03:32:54;;;;;;;52.10;47.08;;;;;;;20.28;98.68;100503.72;7400536;19;20017;-67
2023/06/21 03:35:24;;;;;;;51.80;46.72;;;;;;;20.28;98.78;100518.81;7400269;19;20078;-67
2023/06/21 03:37:55;;;;;;;52.08;46.92;;;;;;;20.27;99.09;100517.97;7398548;19;20038;-67
2023/06/21 03:40:24;;;;;;;51.67;46.40;;;;;;;20.27;99.03;100523.31;7397681;19;20549;-67
2023/06/21 03:42:52;;;;;;;54.38;49.03;;;;;;;20.27;98.88;100523.31;7400213;19;20086;-67
2023/06/21 03:45:20;;;;;;;49.85;44.95;;;;;;;20.28;99.25;100530.34;7399552;19;20035;-67
2023/06/21 03:47:49;;;;;;;51.83;46.67;;;;;;;20.28;99.54;100546.31;7399682;19;20365;-67
2023/06/21 03:50:17;;;;;;;53.95;48.35;;;;;;;20.26;99.71;100556.22;7400177;19;20082;-67
2023/06/21 03:52:46;;;;;;;53.08;47.60;;;;;;;20.27;99.77;100565.03;7399492;19;20443;-68
2023/06/21 03:55:17;;;;;;;51.88;46.70;;;;;;;20.26;99.72;100569.53;7399928;19;20486;-67
2023/06/21 03:57:45;;;;;;;52.28;47.00;;;;;;;20.24;99.87;100582.09;7399670;19;20081;-67
2023/06/21 04:00:14;;;;;;;51.80;46.80;;;;;;;20.24;100.00;100576.75;7399632;19;20561;-66
2023/06/21 04:02:43;;;;;;;52.25;47.10;;;;;;;20.22;99.95;100589.34;7399167;19;20018;-67
2023/06/21 04:05:12;;;;;;;52.30;47.00;;;;;;;20.22;99.86;100592.00;7396683;19;20038;-66
2023/06/21 04:07:40;;;;;;;50.67;45.55;;;;;;;20.21;100.00;100605.41;7398342;19;20014;-68
2023/06/21 04:10:12;;;;;;;52.40;47.28;;;;;;;20.20;100.00;100603.72;7398900;19;20010;-66
2023/06/21 04:12:43;;;;;;;47.45;42.47;;;;;;;20.17;100.00;100608.28;7396687;19;20085;-68
2023/06/21 04:15:12;;;;;;;47.28;42.58;;;;;;;20.16;100.00;100603.91;7396813;19;20019;-66
2023/06/21 04:17:42;;;;;;;49.83;44.92;;;;;;;20.17;100.00;100612.75;7396541;19;20018;-66
2023/06/21 04:20:13;;;;;;;49.67;44.95;;;;;;;20.15;100.00;100615.50;7397149;19;20462;-67
2023/06/21 04:22:42;;;;;;;48.88;44.10;;;;;;;20.16;100.00;100617.22;7396349;19;20019;-67
2023/06/21 04:25:11;;;;;;;48.42;43.72;;;;;;;20.16;100.00;100617.22;7396533;19;20014;-66
2023/06/21 04:27:45;;;;;;;50.58;45.47;;;;;;;20.16;100.00;100617.22;7396628;19;20432;-67
2023/06/21 04:30:14;;;;;;;47.85;43.10;;;;;;;20.18;100.00;100630.44;7396530;19;20025;-66
2023/06/21 04:32:47;;;;;;;51.00;45.80;;;;;;;20.20;100.00;100627.69;7398176;19;20023;-67
2023/06/21 04:35:16;;;;;;;49.92;44.88;;;;;;;20.20;100.00;100636.53;7398542;19;20045;-66
2023/06/21 04:37:46;;;;;;;50.33;45.03;;;;;;;20.22;100.00;100641.75;7398027;19;20018;-66
2023/06/21 04:40:17;;;;;;;49.28;44.20;;;;;;;20.23;100.00;100648.78;7397351;19;20010;-67
2023/06/21 04:42:54;;;;;;;49.10;43.83;;;;;;;20.24;100.00;100645.19;7397006;19;20497;-68
2023/06/21 04:45:23;;;;;;;45.20;40.83;;;;;;;20.23;100.00;100641.63;7396398;19;20482;-67
2023/06/21 04:47:52;;;;;;;46.67;42.17;;;;;;;20.25;100.00;100653.06;7397954;19;20025;-67
2023/06/21 04:50:22;;;;;;;43.03;38.90;;;;;;;20.27;100.00;100659.16;7395331;19;20010;-67
2023/06/21 04:52:50;;;;;;;41.72;37.63;;;;;;;20.29;100.00;100659.06;7397416;19;20019;-67
2023/06/21 04:55:20;;;;;;;37.00;33.17;;;;;;;20.31;100.00;100668.66;7397138;19;20078;-67
2023/06/21 04:57:51;;;;;;;35.88;32.38;;;;;;;20.33;100.00;100674.75;7397433;19;20178;-67
2023/06/21 05:00:21;;;;;;;36.22;32.53;;;;;;;20.37;100.00;100687.88;7397877;19;20082;-67
2023/06/21 05:02:49;;;;;;;32.58;29.35;;;;;;;20.41;100.00;100682.25;7395811;19;20011;-67
2023/06/21 05:05:18;;;;;;;32.42;28.83;;;;;;;20.45;99.97;100686.41;7394260;19;20025;-67
2023/06/21 05:07:46;;;;;;;29.33;26.48;;;;;;;20.49;99.89;100698.59;7395951;19;20525;-67
2023/06/21 05:10:14;;;;;;;28.17;25.38;;;;;;;20.56;99.71;100703.53;7395869;19;20437;-66
2023/06/21 05:12:43;;;;;;;28.17;25.55;;;;;;;20.62;99.24;100697.81;7395916;19;20021;-68
2023/06/21 05:15:14;;;;;;;26.25;23.70;;;;;;;20.68;98.62;100703.56;7395532;19;20082;-65
2023/06/21 05:17:43;;;;;;;25.40;22.83;;;;;;;20.74;98.63;100701.50;7393772;19;20014;-67
2023/06/21 05:20:12;;;;;;;24.48;22.02;;;;;;;20.78;98.49;100703.88;7395362;19;20607;-67
2023/06/21 05:22:41;;;;;;;24.10;21.50;;;;;;;20.84;98.08;100707.97;7395414;19;20011;-68
2023/06/21 05:25:11;;;;;;;27.70;22.38;;;;;;;20.89;97.68;100711.19;7394213;19;20038;-66
2023/06/21 05:27:40;;;;;;;24.00;21.50;;;;;;;20.95;97.62;100704.56;7392916;19;20078;-67
2023/06/21 05:30:10;;;;;;;24.35;21.50;;;;;;;21.01;97.18;100706.00;7395224;19;20364;-66
2023/06/21 05:32:41;;;;;;;23.65;21.38;;;;;;;21.03;96.38;100694.25;7395578;19;20102;-67
2023/06/21 05:35:10;;;;;;;22.50;20.02;;;;;;;21.04;96.47;100698.66;7395868;19;20363;-67
2023/06/21 05:37:39;;;;;;;22.70;20.17;;;;;;;21.07;95.98;100697.59;7393581;19;20074;-67
2023/06/21 05:40:10;;;;;;;23.48;20.98;;;;;;;21.10;95.63;100700.88;7394969;19;20022;-67
2023/06/21 05:42:41;;;;;;;23.23;20.92;;;;;;;21.12;95.87;100701.63;7394430;19;20039;-67
2023/06/21 05:45:11;;;;;;;22.45;20.05;;;;;;;21.16;95.35;100702.28;7394643;19;20141;-66
2023/06/21 05:47:42;;;;;;;23.10;20.70;;;;;;;21.18;95.76;100692.38;7395961;19;20031;-66
2023/06/21 05:50:12;;;;;;;20.30;18.20;;;;;;;21.22;95.50;100704.56;7394600;19;20022;-67
2023/06/21 05:52:40;;;;;;;22.42;20.23;;;;;;;21.25;95.07;100712.34;7395783;19;20382;-66
2023/06/21 05:55:09;;;;;;;22.10;19.40;;;;;;;21.31;94.76;100711.09;7395713;19;20014;-66
2023/06/21 05:57:38;;;;;;;21.85;18.88;;;;;;;21.35;95.18;100701.06;7395765;19;20021;-66
2023/06/21 06:00:09;;;;;;;20.67;18.65;;;;;;;21.40;95.06;100693.59;7395591;19;20033;-66
2023/06/21 06:02:38;;;;;;;22.10;19.80;;;;;;;21.45;94.82;100694.13;7395055;19;20014;-66
2023/06/21 06:05:10;;;;;;;19.63;17.73;;;;;;;21.53;94.52;100702.44;7393700;19;20070;-69
2023/06/21 06:07:38;;;;;;;22.10;18.45;;;;;;;21.59;94.29;100709.22;7395344;19;20093;-69
2023/06/21 06:10:07;;;;;;;20.10;17.92;;;;;;;21.70;93.91;100697.78;7394800;19;20029;-69
2023/06/21 06:12:36;;;;;;;17.90;16.13;;;;;;;21.83;93.84;100706.66;7393040;19;20561;-69
2023/06/21 06:15:04;;;;;;;15.50;14.00;;;;;;;21.92;93.13;100715.84;7392961;19;20010;-69
2023/06/21 06:17:33;;;;;;;16.85;13.45;;;;;;;21.99;91.03;100719.81;7395053;19;20086;-68
2023/06/21 06:20:05;;;;;;;14.40;12.10;;;;;;;22.03;89.24;100725.81;7395162;19;20021;-69
2023/06/21 06:22:36;;;;;;;13.10;11.73;;;;;;;22.08;88.73;100721.81;7392821;19;20015;-69
2023/06/21 06:25:05;;;;;;;12.70;11.40;;;;;;;22.13;87.64;100727.69;7392757;19;20387;-69
2023/06/21 06:27:34;;;;;;;13.02;11.63;;;;;;;22.17;86.82;100728.34;7392115;19;20034;-69
2023/06/21 06:30:02;;;;;;;13.23;11.82;;;;;;;22.24;84.77;100728.75;7393855;19;20011;-69
2023/06/21 06:32:30;;;;;;;12.52;11.20;;;;;;;22.29;84.91;100726.59;7394474;19;20085;-69
2023/06/21 06:34:59;;;;;;;13.07;11.77;;;;;;;22.36;84.38;100727.03;7392303;19;20014;-69
2023/06/21 06:37:27;;;;;;;17.08;12.60;;;;;;;22.43;82.94;100730.97;7394236;19;20018;-70
2023/06/21 06:39:58;;;;;;;13.68;12.48;;;;;;;22.51;83.12;100742.00;7396943;19;20019;-70
2023/06/21 06:42:27;;;;;;;14.63;12.95;;;;;;;22.59;81.78;100741.44;7402202;19;20025;-70
2023/06/21 06:44:55;;;;;;;14.10;12.77;;;;;;;22.67;81.72;100738.19;7398490;19;20035;-71
2023/06/21 06:47:24;;;;;;;13.63;12.43;;;;;;;22.74;82.03;100731.44;7401666;19;20028;-70
2023/06/21 06:49:58;;;;;;;13.77;12.52;;;;;;;22.83;81.56;100735.25;7401861;19;20024;-69
2023/06/21 06:52:27;;;;;;;15.85;12.43;;;;;;;22.93;81.61;100737.13;7401295;19;20050;-68
2023/06/21 06:54:58;;;;;;;14.55;13.02;;;;;;;23.02;80.96;100748.13;7398888;19;20413;-70
2023/06/21 06:57:26;;;;;;;12.45;11.20;;;;;;;23.07;78.96;100757.50;7399017;19;20015;-69
2023/06/21 06:59:55;;;;;;;12.63;11.40;;;;;;;23.08;78.61;100769.91;7398748;19;20078;-69
2023/06/21 07:02:23;;;;;;;13.73;10.80;;;;;;;23.13;78.65;100766.91;7398117;19;20036;-69
2023/06/21 07:04:52;;;;;;;11.30;10.07;;;;;;;23.15;74.90;100783.75;7398401;19;20021;-69
2023/06/21 07:07:21;;;;;;;11.30;10.25;;;;;;;23.21;76.88;100775.22;7399041;19;20074;-70
2023/06/21 07:09:56;;;;;;;11.07;10.02;;;;;;;23.26;75.85;100777.56;7401675;19;20030;-70
2023/06/21 07:12:27;;;;;;;10.73;9.43;;;;;;;23.33;74.31;100761.91;7398266;19;20152;-70
2023/06/21 07:14:55;;;;;;;10.43;9.43;;;;;;;23.37;74.90;100788.34;7397093;19;20038;-70
2023/06/21 07:17:25;;;;;;;9.27;8.25;;;;;;;23.36;73.82;100799.16;7399537;19;20015;-70
2023/06/21 07:19:54;;;;;;;9.63;8.70;;;;;;;23.36;74.52;100805.34;7400659;19;20029;-69
2023/06/21 07:22:22;;;;;;;8.85;7.95;;;;;;;23.41;74.67;100805.03;7400225;19;20025;-69
2023/06/21 07:24:50;;;;;;;10.70;8.27;;;;;;;23.48;74.29;100797.38;7397298;19;20082;-69
2023/06/21 07:27:29;;;;;;;10.48;8.80;;;;;;;23.54;73.49;100811.16;7398158;19;20085;-69
2023/06/21 07:29:58;;;;;;;9.77;8.80;;;;;;;23.63;74.10;100812.25;7397893;19;20018;-69
2023/06/21 07:32:26;;;;;;;9.55;8.65;;;;;;;23.70;73.78;100818.03;7400459;19;20029;-69
2023/06/21 07:34:54;;;;;;;10.68;9.23;;;;;;;23.74;71.30;100828.38;7397224;19;20029;-70
2023/06/21 07:37:23;;;;;;;10.40;8.57;;;;;;;23.75;73.00;100826.56;7399941;19;20082;-70
2023/06/21 07:39:51;;;;;;;9.77;8.23;;;;;;;23.77;72.47;100834.47;7399520;19;20083;-70
2023/06/21 07:42:20;;;;;;;9.48;8.57;;;;;;;23.77;72.31;100837.16;7399849;19;20014;-70
2023/06/21 07:44:52;;;;;;;8.30;7.50;;;;;;;23.80;72.48;100827.06;7397487;19;20011;-70
2023/06/21 07:47:22;;;;;;;8.40;7.45;;;;;;;23.84;71.97;100835.72;7396929;19;20485;-69
2023/06/21 07:49:50;;;;;;;9.02;8.13;;;;;;;23.90;71.11;100840.63;7400204;19;20034;-68
2023/06/21 07:52:19;;;;;;;8.30;7.50;;;;;;;23.99;71.47;100850.66;7399944;19;20011;-68
2023/06/21 07:54:48;;;;;;;8.23;7.45;;;;;;;24.05;71.34;100852.03;7397285;19;20018;-68
2023/06/21 07:57:17;;;;;;;11.43;8.70;;;;;;;24.11;71.01;100846.16;7396673;19;20011;-69
2023/06/21 07:59:46;;;;;;;8.38;7.45;;;;;;;24.16;71.22;100852.03;7398835;19;20018;-69
2023/06/21 08:02:18;;;;;;;8.65;7.57;;;;;;;24.18;69.72;100852.75;7397761;19;20172;-68
2023/06/21 08:04:46;;;;;;;11.27;8.13;;;;;;;24.19;69.80;100859.84;7395421;19;20359;-68
2023/06/21 08:07:15;;;;;;;9.98;9.00;;;;;;;24.22;70.08;100858.75;7398222;19;20024;-68
2023/06/21 08:09:43;;;;;;;8.98;8.07;;;;;;;24.31;70.43;100865.22;7398621;19;20015;-68
2023/06/21 08:12:12;;;;;;;8.60;7.80;;;;;;;24.40;69.84;100876.06;7396788;19;20022;-69
2023/06/21 08:14:41;;;;;;;7.88;7.03;;;;;;;24.46;69.30;100874.72;7396666;19;20094;-68
2023/06/21 08:17:09;;;;;;;8.05;7.35;;;;;;;24.47;68.56;100871.06;7398625;19;20014;-68
2023/06/21 08:19:40;;;;;;;7.10;6.40;;;;;;;24.50;68.45;100872.66;7398942;19;20378;-68
2023/06/21 08:22:08;;;;;;;8.13;6.93;;;;;;;24.54;68.78;100883.03;7399066;19;20022;-68
2023/06/21 08:24:37;;;;;;;7.63;6.93;;;;;;;24.58;67.86;100878.28;7396340;19;20486;-69
2023/06/21 08:27:06;;;;;;;8.25;6.80;;;;;;;24.61;68.05;100871.81;7395452;19;20019;-68
2023/06/21 08:29:34;;;;;;;7.80;7.05;;;;;;;24.67;67.82;100877.59;7398743;19;20087;-69
2023/06/21 08:32:03;;;;;;;7.68;6.88;;;;;;;24.78;67.72;100874.06;7397615;19;20083;-69
2023/06/21 08:34:31;;;;;;;6.97;6.32;;;;;;;24.87;66.79;100883.16;7396217;19;20038;-68
2023/06/21 08:37:02;;;;;;;8.65;7.00;;;;;;;24.95;66.83;100883.41;7398207;19;20074;-69
2023/06/21 08:39:31;;;;;;;7.47;6.78;;;;;;;25.02;66.49;100881.09;7398373;19;20018;-68
2023/06/21 08:41:59;;;;;;;6.70;6.10;;;;;;;25.03;64.52;100893.53;7397441;19;20010;-68
2023/06/21 08:44:28;;;;;;;6.65;5.85;;;;;;;25.02;65.47;100878.41;7396099;19;20506;-69
2023/06/21 08:47:00;;;;;;;7.00;6.32;;;;;;;25.04;65.87;100884.50;7395883;19;20096;-69
2023/06/21 08:49:32;;;;;;;7.13;6.43;;;;;;;25.11;65.23;100891.09;7398028;19;20423;-69
2023/06/21 08:52:10;;;;;;;6.82;6.13;;;;;;;25.17;64.75;100897.78;7395055;19;20034;-68
2023/06/21 08:54:42;;;;;;;6.00;5.50;;;;;;;25.25;64.28;100906.06;7395216;19;20015;-68
2023/06/21 08:57:16;;;;;;;6.57;6.05;;;;;;;25.31;63.80;100891.28;7397714;19;20083;-68
2023/06/21 08:59:50;;;;;;;8.10;6.07;;;;;;;25.39;64.38;100888.88;7397519;19;20015;-69
2023/06/21 09:02:30;;;;;;;6.95;6.15;;;;;;;25.42;61.87;100898.50;7393098;19;20423;-68
2023/06/21 09:05:01;;;;;;;8.18;6.43;;;;;;;25.42;62.62;100906.56;7394945;19;20017;-69
2023/06/21 09:07:33;;;;;;;6.90;6.32;;;;;;;25.41;61.68;100907.53;7397449;19;20015;-69
2023/06/21 09:10:04;;;;;;;7.10;6.40;;;;;;;25.44;62.65;100896.53;7397147;19;20023;-69
2023/06/21 09:12:34;;;;;;;6.90;6.20;;;;;;;25.50;63.00;100888.84;7396592;19;20026;-70
2023/06/21 09:15:03;;;;;;;7.40;6.22;;;;;;;25.59;62.04;100886.34;7394554;19;20014;-69
2023/06/21 09:17:32;;;;;;;7.28;6.50;;;;;;;25.66;62.41;100891.06;7396618;19;20025;-69
2023/06/21 09:20:01;;;;;;;7.35;6.63;;;;;;;25.73;61.86;100890.56;7395478;19;20014;-68
2023/06/21 09:22:33;;;;;;;6.68;6.07;;;;;;;25.77;59.65;100890.19;7394899;19;20085;-68
2023/06/21 09:25:02;;;;;;;12.38;6.78;;;;;;;25.83;61.30;100895.06;7394350;19;20486;-69
2023/06/21 09:27:30;;;;;;;7.88;6.72;;;;;;;25.85;61.38;100897.59;7396016;19;20011;-69
2023/06/21 09:29:59;;;;;;;9.02;6.47;;;;;;;25.91;61.34;100897.09;7396335;19;20022;-68
2023/06/21 09:32:27;;;;;;;6.93;6.20;;;;;;;25.94;61.09;100901.34;7395023;19;20015;-68
2023/06/21 09:34:56;;;;;;;8.27;6.18;;;;;;;25.94;60.98;100904.88;7393945;19;20019;-69
2023/06/21 09:37:38;;;;;;;6.80;6.20;;;;;;;25.95;59.90;100908.44;7395905;19;20374;-68
2023/06/21 09:40:08;;;;;;;6.47;5.88;;;;;;;25.93;60.28;100897.81;7396464;19;20021;-68
2023/06/21 09:42:39;;;;;;;7.28;6.57;;;;;;;25.96;60.34;100904.78;7395758;19;20029;-69
2023/06/21 09:45:11;;;;;;;6.70;6.10;;;;;;;26.02;60.01;100909.59;7395997;19;20014;-69
2023/06/21 09:47:42;;;;;;;6.80;6.15;;;;;;;26.08;59.06;100917.19;7396181;19;20017;-69
2023/06/21 09:50:12;;;;;;;6.90;5.45;;;;;;;26.13;58.34;100909.56;7398000;19;20018;-68
2023/06/21 09:52:46;;;;;;;6.72;6.10;;;;;;;26.18;57.54;100907.38;7396081;19;20091;-69
2023/06/21 09:55:16;;;;;;;8.63;6.45;;;;;;;26.23;57.92;100923.09;7395430;19;20493;-69
2023/06/21 09:57:45;;;;;;;7.35;6.18;;;;;;;26.27;58.00;100923.69;7394745;19;20010;-68
2023/06/21 10:00:15;;;;;;;6.07;5.47;;;;;;;26.32;57.06;100929.53;7395086;19;20060;-69
2023/06/21 10:02:44;;;;;;;6.13;5.45;;;;;;;26.41;57.77;100928.75;7394611;19;20018;-69
2023/06/21 10:05:18;;;;;;;6.18;5.40;;;;;;;26.44;56.54;100922.25;7393243;19;20018;-69
2023/06/21 10:07:49;;;;;;;6.10;5.60;;;;;;;26.49;56.77;100931.59;7393007;19;20030;-70
2023/06/21 10:10:20;;;;;;;6.07;5.47;;;;;;;26.57;56.77;100940.88;7395242;19;20018;-69
2023/06/21 10:12:52;;;;;;;5.57;5.00;;;;;;;26.61;56.49;100918.91;7394043;19;20018;-68
2023/06/21 10:15:21;;;;;;;5.53;4.97;;;;;;;26.67;56.31;100929.16;7394627;19;20494;-71
2023/06/21 10:17:50;;;;;;;7.97;5.30;;;;;;;26.74;56.12;100939.41;7394347;19;20018;-70
2023/06/21 10:20:20;;;;;;;6.18;5.18;;;;;;;26.81;55.99;100941.44;7394120;19;20047;-74
2023/06/21 10:22:52;;;;;;;6.10;5.50;;;;;;;26.90;54.84;100945.16;7395009;19;20025;-75
2023/06/21 10:25:22;;;;;;;8.18;5.47;;;;;;;26.97;55.52;100938.25;7394959;19;20351;-69
2023/06/21 10:27:54;;;;;;;7.40;5.22;;;;;;;27.07;54.33;100937.41;7393397;19;20031;-68
2023/06/21 10:30:25;;;;;;;5.55;5.03;;;;;;;27.12;53.99;100943.25;7392552;19;20086;-68
2023/06/21 10:32:56;;;;;;;6.35;5.18;;;;;;;27.07;54.37;100949.06;7392686;19;20015;-69
2023/06/21 10:35:28;;;;;;;5.47;4.78;;;;;;;27.01;54.21;100935.28;7394139;19;20014;-70
2023/06/21 10:38:06;;;;;;;6.00;5.07;;;;;;;26.97;53.94;100938.25;7393686;19;20457;-68
2023/06/21 10:40:37;;;;;;;5.20;4.60;;;;;;;26.99;54.06;100927.34;7392577;19;20078;-69
2023/06/21 10:43:07;;;;;;;8.80;5.88;;;;;;;27.03;54.20;100936.84;7394256;19;20022;-69
2023/06/21 10:45:36;;;;;;;6.95;4.75;;;;;;;27.07;52.91;100938.28;7393640;19;20011;-68
2023/06/21 10:48:07;;;;;;;5.43;4.70;;;;;;;27.14;53.55;100942.13;7394179;19;20143;-68
2023/06/21 10:50:36;;;;;;;7.15;5.03;;;;;;;27.15;53.62;100941.13;7394915;19;20021;-69
2023/06/21 10:53:08;;;;;;;5.95;5.38;;;;;;;27.14;53.35;100942.13;7393416;19;20010;-69
2023/06/21 10:55:39;;;;;;;5.60;5.20;;;;;;;27.18;53.76;100953.47;7391710;19;20520;-69
2023/06/21 10:58:08;;;;;;;5.35;4.38;;;;;;;27.17;52.31;100954.47;7391747;19;20018;-68
2023/06/21 11:00:37;;;;;;;6.00;4.95;;;;;;;27.18;52.81;100949.94;7393885;19;20019;-69
2023/06/21 11:03:05;;;;;;;5.50;4.65;;;;;;;27.21;53.01;100945.13;7392569;19;20429;-68
2023/06/21 11:05:35;;;;;;;10.43;4.90;;;;;;;27.25;52.80;100941.16;7392822;19;20481;-69
2023/06/21 11:08:09;;;;;;;8.00;4.97;;;;;;;27.24;51.83;100947.53;7390950;19;20051;-69
2023/06/21 11:10:41;;;;;;;5.32;4.80;;;;;;;27.30;52.34;100947.00;7392598;19;20411;-69
2023/06/21 11:13:10;;;;;;;4.82;4.35;;;;;;;27.30;51.03;100948.84;7392435;19;20074;-69
2023/06/21 11:15:41;;;;;;;4.55;3.95;;;;;;;27.31;51.63;100942.47;7390906;19;20026;-69
2023/06/21 11:18:12;;;;;;;5.65;5.05;;;;;;;27.33;51.44;100945.03;7393082;19;20336;-69
2023/06/21 11:20:48;;;;;;;5.47;4.55;;;;;;;27.45;50.50;100941.25;7389963;19;20482;-70
2023/06/21 11:23:22;;;;;;;5.35;4.75;;;;;;;27.57;49.85;100953.59;7391460;19;20548;-71
2023/06/21 11:26:15;;;;;;;5.10;3.88;;;;;;;27.61;49.10;100965.81;7397499;19;20015;-68
2023/06/21 11:28:46;;;;;;;4.85;4.45;;;;;;;27.61;49.04;100954.16;7396503;19;20011;-69